sensor_id;sensor_type;location;lat;lon;timestamp;P1;durP1;ratioP1;P2;durP2;ratioP2
53411;SDS011;39307;52.870;13.660;2022-12-29T00:00:04;5.80;;;2.80;;
53411;SDS011;39307;52.870;13.660;2022-12-29T00:02:31;4.82;;;2.58;;
53411;SDS011;39307;52.870;13.660;2022-12-29T00:04:57;5.82;;;2.60;;
53411;SDS011;39307;52.870;13.660;2022-12-29T00:07:23;4.45;;;2.53;;
53411;SDS011;39307;52.870;13.660;2022-12-29T00:09:49;5.97;;;2.65;;
53411;SDS011;39307;52.870;13.660;2022-12-29T00:12:16;4.87;;;2.70;;
53411;SDS011;39307;52.870;13.660;2022-12-29T00:14:42;4.95;;;2.40;;
53411;SDS011;39307;52.870;13.660;2022-12-29T00:17:08;4.85;;;2.70;;
53411;SDS011;39307;52.870;13.660;2022-12-29T00:19:34;5.45;;;2.63;;
53411;SDS011;39307;52.870;13.660;2022-12-29T00:22:00;5.85;;;2.78;;
53411;SDS011;39307;52.870;13.660;2022-12-29T00:24:27;6.55;;;2.90;;
53411;SDS011;39307;52.870;13.660;2022-12-29T00:29:29;6.18;;;2.53;;
53411;SDS011;39307;52.870;13.660;2022-12-29T00:31:55;5.20;;;2.70;;
53411;SDS011;39307;52.870;13.660;2022-12-29T00:34:21;6.38;;;2.80;;
53411;SDS011;39307;52.870;13.660;2022-12-29T00:36:47;5.38;;;2.60;;
53411;SDS011;39307;52.870;13.660;2022-12-29T00:39:14;6.80;;;2.80;;
53411;SDS011;39307;52.870;13.660;2022-12-29T00:41:43;5.50;;;2.60;;
53411;SDS011;39307;52.870;13.660;2022-12-29T00:44:10;5.40;;;2.60;;
53411;SDS011;39307;52.870;13.660;2022-12-29T00:46:39;5.38;;;2.58;;
53411;SDS011;39307;52.870;13.660;2022-12-29T00:49:07;5.93;;;2.50;;
53411;SDS011;39307;52.870;13.660;2022-12-29T00:51:35;7.00;;;2.72;;
53411;SDS011;39307;52.870;13.660;2022-12-29T00:54:01;4.97;;;2.50;;
53411;SDS011;39307;52.870;13.660;2022-12-29T00:56:27;5.47;;;2.53;;
53411;SDS011;39307;52.870;13.660;2022-12-29T00:58:54;6.03;;;2.65;;
53411;SDS011;39307;52.870;13.660;2022-12-29T01:01:20;4.88;;;2.60;;
53411;SDS011;39307;52.870;13.660;2022-12-29T01:03:46;5.47;;;2.40;;
53411;SDS011;39307;52.870;13.660;2022-12-29T01:06:12;4.68;;;2.45;;
53411;SDS011;39307;52.870;13.660;2022-12-29T01:08:38;5.15;;;2.40;;
53411;SDS011;39307;52.870;13.660;2022-12-29T01:11:05;5.38;;;2.47;;
53411;SDS011;39307;52.870;13.660;2022-12-29T01:13:34;5.03;;;2.70;;
53411;SDS011;39307;52.870;13.660;2022-12-29T01:16:01;4.78;;;2.25;;
53411;SDS011;39307;52.870;13.660;2022-12-29T01:18:27;7.07;;;2.60;;
53411;SDS011;39307;52.870;13.660;2022-12-29T01:21:03;5.07;;;2.20;;
53411;SDS011;39307;52.870;13.660;2022-12-29T01:23:31;5.37;;;2.70;;
53411;SDS011;39307;52.870;13.660;2022-12-29T01:25:57;6.65;;;2.45;;
53411;SDS011;39307;52.870;13.660;2022-12-29T01:28:35;6.97;;;2.30;;
53411;SDS011;39307;52.870;13.660;2022-12-29T01:31:01;5.15;;;2.25;;
53411;SDS011;39307;52.870;13.660;2022-12-29T01:33:27;5.45;;;2.55;;
53411;SDS011;39307;52.870;13.660;2022-12-29T01:35:53;6.32;;;2.60;;
53411;SDS011;39307;52.870;13.660;2022-12-29T01:38:19;4.78;;;2.50;;
53411;SDS011;39307;52.870;13.660;2022-12-29T01:40:46;4.28;;;2.30;;
53411;SDS011;39307;52.870;13.660;2022-12-29T01:43:12;4.80;;;2.38;;
53411;SDS011;39307;52.870;13.660;2022-12-29T01:45:41;5.47;;;2.60;;
53411;SDS011;39307;52.870;13.660;2022-12-29T01:48:16;5.45;;;2.40;;
53411;SDS011;39307;52.870;13.660;2022-12-29T01:50:46;5.47;;;2.45;;
53411;SDS011;39307;52.870;13.660;2022-12-29T01:53:18;5.13;;;2.60;;
53411;SDS011;39307;52.870;13.660;2022-12-29T01:55:49;6.15;;;2.50;;
53411;SDS011;39307;52.870;13.660;2022-12-29T01:58:20;5.15;;;2.45;;
53411;SDS011;39307;52.870;13.660;2022-12-29T02:00:49;6.23;;;2.40;;
53411;SDS011;39307;52.870;13.660;2022-12-29T02:03:16;4.50;;;2.45;;
53411;SDS011;39307;52.870;13.660;2022-12-29T02:08:37;5.00;;;2.30;;
53411;SDS011;39307;52.870;13.660;2022-12-29T02:11:04;4.95;;;2.45;;
53411;SDS011;39307;52.870;13.660;2022-12-29T02:13:31;8.05;;;2.40;;
53411;SDS011;39307;52.870;13.660;2022-12-29T02:16:07;5.80;;;2.67;;
53411;SDS011;39307;52.870;13.660;2022-12-29T02:28:12;4.90;;;2.30;;
53411;SDS011;39307;52.870;13.660;2022-12-29T02:31:05;5.40;;;2.60;;
53411;SDS011;39307;52.870;13.660;2022-12-29T02:34:07;4.80;;;2.43;;
53411;SDS011;39307;52.870;13.660;2022-12-29T02:37:05;5.63;;;2.35;;
53411;SDS011;39307;52.870;13.660;2022-12-29T02:45:18;5.20;;;2.42;;
53411;SDS011;39307;52.870;13.660;2022-12-29T02:50:46;6.93;;;2.33;;
53411;SDS011;39307;52.870;13.660;2022-12-29T02:53:17;5.35;;;2.33;;
53411;SDS011;39307;52.870;13.660;2022-12-29T02:55:49;5.60;;;2.53;;
53411;SDS011;39307;52.870;13.660;2022-12-29T02:58:18;5.13;;;2.40;;
53411;SDS011;39307;52.870;13.660;2022-12-29T03:00:48;5.35;;;2.50;;
53411;SDS011;39307;52.870;13.660;2022-12-29T03:06:49;5.03;;;2.40;;
53411;SDS011;39307;52.870;13.660;2022-12-29T03:09:34;6.15;;;2.65;;
53411;SDS011;39307;52.870;13.660;2022-12-29T03:12:24;4.85;;;2.50;;
53411;SDS011;39307;52.870;13.660;2022-12-29T03:15:01;5.07;;;2.40;;
53411;SDS011;39307;52.870;13.660;2022-12-29T03:17:46;5.68;;;2.53;;
53411;SDS011;39307;52.870;13.660;2022-12-29T03:20:25;6.30;;;2.60;;
53411;SDS011;39307;52.870;13.660;2022-12-29T03:22:58;4.93;;;2.30;;
53411;SDS011;39307;52.870;13.660;2022-12-29T03:25:30;5.50;;;2.53;;
53411;SDS011;39307;52.870;13.660;2022-12-29T03:28:01;4.97;;;2.60;;
53411;SDS011;39307;52.870;13.660;2022-12-29T03:30:31;4.38;;;2.22;;
53411;SDS011;39307;52.870;13.660;2022-12-29T03:33:00;4.70;;;2.38;;
53411;SDS011;39307;52.870;13.660;2022-12-29T03:35:34;5.15;;;2.20;;
53411;SDS011;39307;52.870;13.660;2022-12-29T03:40:59;4.50;;;2.13;;
53411;SDS011;39307;52.870;13.660;2022-12-29T03:43:30;5.35;;;2.30;;
53411;SDS011;39307;52.870;13.660;2022-12-29T03:45:56;4.63;;;2.27;;
53411;SDS011;39307;52.870;13.660;2022-12-29T03:48:22;4.90;;;2.47;;
53411;SDS011;39307;52.870;13.660;2022-12-29T03:50:49;4.43;;;2.38;;
53411;SDS011;39307;52.870;13.660;2022-12-29T03:53:15;6.10;;;2.35;;
53411;SDS011;39307;52.870;13.660;2022-12-29T03:55:41;4.70;;;2.20;;
53411;SDS011;39307;52.870;13.660;2022-12-29T03:58:07;6.05;;;2.53;;
53411;SDS011;39307;52.870;13.660;2022-12-29T04:00:33;4.05;;;2.10;;
53411;SDS011;39307;52.870;13.660;2022-12-29T04:02:59;4.07;;;2.20;;
53411;SDS011;39307;52.870;13.660;2022-12-29T04:05:26;4.10;;;2.10;;
53411;SDS011;39307;52.870;13.660;2022-12-29T04:07:52;5.78;;;2.20;;
53411;SDS011;39307;52.870;13.660;2022-12-29T04:10:18;4.05;;;2.13;;
53411;SDS011;39307;52.870;13.660;2022-12-29T04:12:44;4.28;;;2.05;;
53411;SDS011;39307;52.870;13.660;2022-12-29T04:15:10;5.00;;;2.30;;
53411;SDS011;39307;52.870;13.660;2022-12-29T04:17:36;6.43;;;2.25;;
53411;SDS011;39307;52.870;13.660;2022-12-29T04:20:03;4.33;;;2.43;;
53411;SDS011;39307;52.870;13.660;2022-12-29T04:22:30;4.97;;;2.20;;
53411;SDS011;39307;52.870;13.660;2022-12-29T04:24:56;7.13;;;2.17;;
53411;SDS011;39307;52.870;13.660;2022-12-29T04:27:22;4.47;;;2.10;;
53411;SDS011;39307;52.870;13.660;2022-12-29T04:29:48;4.97;;;2.08;;
53411;SDS011;39307;52.870;13.660;2022-12-29T04:32:14;4.50;;;2.10;;
53411;SDS011;39307;52.870;13.660;2022-12-29T04:34:40;4.75;;;2.20;;
53411;SDS011;39307;52.870;13.660;2022-12-29T04:37:07;3.47;;;2.15;;
53411;SDS011;39307;52.870;13.660;2022-12-29T04:39:33;3.90;;;2.20;;
53411;SDS011;39307;52.870;13.660;2022-12-29T04:41:59;4.70;;;2.10;;
53411;SDS011;39307;52.870;13.660;2022-12-29T04:44:25;6.70;;;2.40;;
53411;SDS011;39307;52.870;13.660;2022-12-29T04:46:51;5.67;;;2.20;;
53411;SDS011;39307;52.870;13.660;2022-12-29T04:49:17;4.43;;;2.20;;
53411;SDS011;39307;52.870;13.660;2022-12-29T04:51:44;5.57;;;2.38;;
53411;SDS011;39307;52.870;13.660;2022-12-29T04:54:10;4.68;;;2.30;;
53411;SDS011;39307;52.870;13.660;2022-12-29T04:56:36;4.70;;;2.13;;
53411;SDS011;39307;52.870;13.660;2022-12-29T04:59:05;4.88;;;2.33;;
53411;SDS011;39307;52.870;13.660;2022-12-29T05:01:31;5.68;;;2.13;;
53411;SDS011;39307;52.870;13.660;2022-12-29T05:03:57;4.63;;;1.90;;
53411;SDS011;39307;52.870;13.660;2022-12-29T05:06:23;4.78;;;2.00;;
53411;SDS011;39307;52.870;13.660;2022-12-29T05:08:49;3.85;;;1.88;;
53411;SDS011;39307;52.870;13.660;2022-12-29T05:11:16;4.27;;;2.13;;
53411;SDS011;39307;52.870;13.660;2022-12-29T05:13:44;5.32;;;2.13;;
53411;SDS011;39307;52.870;13.660;2022-12-29T05:16:11;4.68;;;2.10;;
53411;SDS011;39307;52.870;13.660;2022-12-29T05:18:37;4.78;;;1.90;;
53411;SDS011;39307;52.870;13.660;2022-12-29T05:21:03;3.70;;;1.80;;
53411;SDS011;39307;52.870;13.660;2022-12-29T05:23:30;3.95;;;1.92;;
53411;SDS011;39307;52.870;13.660;2022-12-29T05:25:56;4.80;;;2.20;;
53411;SDS011;39307;52.870;13.660;2022-12-29T05:28:22;4.03;;;1.87;;
53411;SDS011;39307;52.870;13.660;2022-12-29T05:30:49;3.08;;;1.77;;
53411;SDS011;39307;52.870;13.660;2022-12-29T05:33:16;4.68;;;2.10;;
53411;SDS011;39307;52.870;13.660;2022-12-29T05:35:42;4.88;;;1.90;;
53411;SDS011;39307;52.870;13.660;2022-12-29T05:38:09;4.80;;;1.95;;
53411;SDS011;39307;52.870;13.660;2022-12-29T05:40:35;4.75;;;2.08;;
53411;SDS011;39307;52.870;13.660;2022-12-29T05:43:01;4.67;;;2.07;;
53411;SDS011;39307;52.870;13.660;2022-12-29T05:45:27;3.78;;;2.03;;
53411;SDS011;39307;52.870;13.660;2022-12-29T05:47:54;3.30;;;1.80;;
53411;SDS011;39307;52.870;13.660;2022-12-29T05:50:20;3.45;;;1.75;;
53411;SDS011;39307;52.870;13.660;2022-12-29T05:52:46;6.57;;;1.95;;
53411;SDS011;39307;52.870;13.660;2022-12-29T05:55:12;4.43;;;1.90;;
53411;SDS011;39307;52.870;13.660;2022-12-29T05:57:39;4.13;;;1.75;;
53411;SDS011;39307;52.870;13.660;2022-12-29T06:00:05;3.17;;;1.60;;
53411;SDS011;39307;52.870;13.660;2022-12-29T06:02:32;4.32;;;1.85;;
53411;SDS011;39307;52.870;13.660;2022-12-29T06:04:58;4.13;;;2.10;;
53411;SDS011;39307;52.870;13.660;2022-12-29T06:07:24;3.60;;;1.60;;
53411;SDS011;39307;52.870;13.660;2022-12-29T06:09:50;4.85;;;1.77;;
53411;SDS011;39307;52.870;13.660;2022-12-29T06:12:17;4.88;;;1.90;;
53411;SDS011;39307;52.870;13.660;2022-12-29T06:14:43;4.03;;;1.90;;
53411;SDS011;39307;52.870;13.660;2022-12-29T06:17:09;4.97;;;1.90;;
53411;SDS011;39307;52.870;13.660;2022-12-29T06:19:35;3.85;;;1.92;;
53411;SDS011;39307;52.870;13.660;2022-12-29T06:22:01;3.75;;;1.80;;
53411;SDS011;39307;52.870;13.660;2022-12-29T06:24:28;4.07;;;1.95;;
53411;SDS011;39307;52.870;13.660;2022-12-29T06:26:54;4.00;;;1.73;;
53411;SDS011;39307;52.870;13.660;2022-12-29T06:29:20;3.10;;;1.70;;
53411;SDS011;39307;52.870;13.660;2022-12-29T06:31:46;5.13;;;1.75;;
53411;SDS011;39307;52.870;13.660;2022-12-29T06:34:12;3.38;;;1.80;;
53411;SDS011;39307;52.870;13.660;2022-12-29T06:36:39;4.90;;;2.05;;
53411;SDS011;39307;52.870;13.660;2022-12-29T06:39:05;4.72;;;1.77;;
53411;SDS011;39307;52.870;13.660;2022-12-29T06:41:31;4.25;;;1.90;;
53411;SDS011;39307;52.870;13.660;2022-12-29T06:43:57;4.75;;;1.95;;
53411;SDS011;39307;52.870;13.660;2022-12-29T06:46:23;3.08;;;1.60;;
53411;SDS011;39307;52.870;13.660;2022-12-29T06:48:50;4.13;;;1.70;;
53411;SDS011;39307;52.870;13.660;2022-12-29T06:51:17;3.97;;;1.73;;
53411;SDS011;39307;52.870;13.660;2022-12-29T06:53:43;4.78;;;2.20;;
53411;SDS011;39307;52.870;13.660;2022-12-29T06:56:09;4.50;;;1.70;;
53411;SDS011;39307;52.870;13.660;2022-12-29T06:58:35;4.25;;;1.50;;
53411;SDS011;39307;52.870;13.660;2022-12-29T07:01:01;3.57;;;1.90;;
53411;SDS011;39307;52.870;13.660;2022-12-29T07:03:28;2.50;;;1.50;;
53411;SDS011;39307;52.870;13.660;2022-12-29T07:05:54;3.00;;;1.70;;
53411;SDS011;39307;52.870;13.660;2022-12-29T07:08:20;2.75;;;1.55;;
53411;SDS011;39307;52.870;13.660;2022-12-29T07:10:46;5.40;;;1.92;;
53411;SDS011;39307;52.870;13.660;2022-12-29T07:13:12;3.35;;;1.60;;
53411;SDS011;39307;52.870;13.660;2022-12-29T07:15:39;3.90;;;1.67;;
53411;SDS011;39307;52.870;13.660;2022-12-29T07:18:05;3.53;;;1.63;;
53411;SDS011;39307;52.870;13.660;2022-12-29T07:20:31;4.13;;;1.63;;
53411;SDS011;39307;52.870;13.660;2022-12-29T07:22:58;3.85;;;1.70;;
53411;SDS011;39307;52.870;13.660;2022-12-29T07:25:24;4.10;;;1.60;;
53411;SDS011;39307;52.870;13.660;2022-12-29T07:27:50;2.97;;;1.50;;
53411;SDS011;39307;52.870;13.660;2022-12-29T07:30:16;4.28;;;1.70;;
53411;SDS011;39307;52.870;13.660;2022-12-29T07:32:42;5.13;;;1.75;;
53411;SDS011;39307;52.870;13.660;2022-12-29T07:35:09;4.20;;;1.63;;
53411;SDS011;39307;52.870;13.660;2022-12-29T07:37:35;4.88;;;1.45;;
53411;SDS011;39307;52.870;13.660;2022-12-29T07:40:01;3.58;;;1.48;;
53411;SDS011;39307;52.870;13.660;2022-12-29T07:42:28;4.10;;;1.60;;
53411;SDS011;39307;52.870;13.660;2022-12-29T07:44:54;4.83;;;1.50;;
53411;SDS011;39307;52.870;13.660;2022-12-29T07:47:21;4.13;;;1.50;;
53411;SDS011;39307;52.870;13.660;2022-12-29T07:49:47;4.28;;;1.45;;
53411;SDS011;39307;52.870;13.660;2022-12-29T07:52:13;2.80;;;1.17;;
53411;SDS011;39307;52.870;13.660;2022-12-29T07:54:39;4.70;;;1.33;;
53411;SDS011;39307;52.870;13.660;2022-12-29T07:57:05;3.78;;;1.58;;
53411;SDS011;39307;52.870;13.660;2022-12-29T07:59:32;3.35;;;1.40;;
53411;SDS011;39307;52.870;13.660;2022-12-29T08:01:58;2.90;;;1.33;;
53411;SDS011;39307;52.870;13.660;2022-12-29T08:04:24;2.80;;;1.20;;
53411;SDS011;39307;52.870;13.660;2022-12-29T08:06:50;2.78;;;1.33;;
53411;SDS011;39307;52.870;13.660;2022-12-29T08:09:17;3.60;;;1.40;;
53411;SDS011;39307;52.870;13.660;2022-12-29T08:11:43;4.55;;;1.25;;
53411;SDS011;39307;52.870;13.660;2022-12-29T08:14:09;3.43;;;1.40;;
53411;SDS011;39307;52.870;13.660;2022-12-29T08:16:36;3.25;;;1.40;;
53411;SDS011;39307;52.870;13.660;2022-12-29T08:19:02;3.90;;;1.27;;
53411;SDS011;39307;52.870;13.660;2022-12-29T08:21:28;4.47;;;1.70;;
53411;SDS011;39307;52.870;13.660;2022-12-29T08:23:54;3.10;;;1.23;;
53411;SDS011;39307;52.870;13.660;2022-12-29T08:26:20;2.92;;;1.20;;
53411;SDS011;39307;52.870;13.660;2022-12-29T08:28:47;3.20;;;1.20;;
53411;SDS011;39307;52.870;13.660;2022-12-29T08:31:13;5.82;;;1.30;;
53411;SDS011;39307;52.870;13.660;2022-12-29T08:33:39;2.90;;;1.10;;
53411;SDS011;39307;52.870;13.660;2022-12-29T08:36:06;4.13;;;1.15;;
53411;SDS011;39307;52.870;13.660;2022-12-29T08:38:32;4.30;;;1.20;;
53411;SDS011;39307;52.870;13.660;2022-12-29T08:40:59;4.28;;;1.20;;
53411;SDS011;39307;52.870;13.660;2022-12-29T08:43:25;2.85;;;1.20;;
53411;SDS011;39307;52.870;13.660;2022-12-29T08:45:52;2.67;;;1.20;;
53411;SDS011;39307;52.870;13.660;2022-12-29T08:48:18;2.92;;;1.25;;
53411;SDS011;39307;52.870;13.660;2022-12-29T08:50:44;3.03;;;1.42;;
53411;SDS011;39307;52.870;13.660;2022-12-29T08:53:11;2.75;;;1.20;;
53411;SDS011;39307;52.870;13.660;2022-12-29T08:55:37;3.92;;;1.20;;
53411;SDS011;39307;52.870;13.660;2022-12-29T08:58:04;3.63;;;1.30;;
53411;SDS011;39307;52.870;13.660;2022-12-29T09:00:30;3.35;;;1.33;;
53411;SDS011;39307;52.870;13.660;2022-12-29T09:02:56;2.90;;;1.13;;
53411;SDS011;39307;52.870;13.660;2022-12-29T09:05:22;2.87;;;1.40;;
53411;SDS011;39307;52.870;13.660;2022-12-29T09:07:48;4.10;;;1.30;;
53411;SDS011;39307;52.870;13.660;2022-12-29T09:10:15;1.80;;;1.10;;
53411;SDS011;39307;52.870;13.660;2022-12-29T09:12:41;2.95;;;1.13;;
53411;SDS011;39307;52.870;13.660;2022-12-29T09:15:07;3.75;;;1.20;;
53411;SDS011;39307;52.870;13.660;2022-12-29T09:17:34;4.00;;;1.27;;
53411;SDS011;39307;52.870;13.660;2022-12-29T09:20:01;2.70;;;1.00;;
53411;SDS011;39307;52.870;13.660;2022-12-29T09:22:27;2.60;;;1.10;;
53411;SDS011;39307;52.870;13.660;2022-12-29T09:24:53;3.05;;;1.15;;
53411;SDS011;39307;52.870;13.660;2022-12-29T09:27:20;3.92;;;1.17;;
53411;SDS011;39307;52.870;13.660;2022-12-29T09:29:46;3.53;;;1.10;;
53411;SDS011;39307;52.870;13.660;2022-12-29T09:32:12;2.60;;;1.10;;
53411;SDS011;39307;52.870;13.660;2022-12-29T09:34:38;2.25;;;1.08;;
53411;SDS011;39307;52.870;13.660;2022-12-29T09:37:04;3.30;;;1.20;;
53411;SDS011;39307;52.870;13.660;2022-12-29T09:39:31;6.50;;;1.30;;
53411;SDS011;39307;52.870;13.660;2022-12-29T09:42:00;3.25;;;1.20;;
53411;SDS011;39307;52.870;13.660;2022-12-29T09:44:54;2.60;;;1.00;;
53411;SDS011;39307;52.870;13.660;2022-12-29T09:47:36;3.13;;;1.13;;
53411;SDS011;39307;52.870;13.660;2022-12-29T09:50:05;3.22;;;1.20;;
53411;SDS011;39307;52.870;13.660;2022-12-29T09:52:52;2.50;;;1.10;;
53411;SDS011;39307;52.870;13.660;2022-12-29T09:55:26;3.17;;;1.20;;
53411;SDS011;39307;52.870;13.660;2022-12-29T09:58:21;3.00;;;1.30;;
53411;SDS011;39307;52.870;13.660;2022-12-29T10:01:03;2.80;;;1.10;;
53411;SDS011;39307;52.870;13.660;2022-12-29T10:03:49;2.90;;;0.97;;
53411;SDS011;39307;52.870;13.660;2022-12-29T10:06:22;4.13;;;1.20;;
53411;SDS011;39307;52.870;13.660;2022-12-29T10:20:33;4.30;;;1.10;;
53411;SDS011;39307;52.870;13.660;2022-12-29T10:23:27;4.63;;;1.15;;
53411;SDS011;39307;52.870;13.660;2022-12-29T10:25:55;3.37;;;1.10;;
53411;SDS011;39307;52.870;13.660;2022-12-29T10:28:33;2.90;;;1.08;;
53411;SDS011;39307;52.870;13.660;2022-12-29T10:31:09;2.97;;;1.10;;
53411;SDS011;39307;52.870;13.660;2022-12-29T10:33:42;2.50;;;1.10;;
53411;SDS011;39307;52.870;13.660;2022-12-29T10:36:13;4.47;;;1.30;;
53411;SDS011;39307;52.870;13.660;2022-12-29T10:39:00;3.65;;;1.00;;
53411;SDS011;39307;52.870;13.660;2022-12-29T10:41:41;4.07;;;1.00;;
53411;SDS011;39307;52.870;13.660;2022-12-29T10:44:17;2.70;;;1.10;;
53411;SDS011;39307;52.870;13.660;2022-12-29T10:46:46;3.43;;;1.17;;
53411;SDS011;39307;52.870;13.660;2022-12-29T10:49:24;3.63;;;1.02;;
53411;SDS011;39307;52.870;13.660;2022-12-29T10:51:52;4.75;;;1.20;;
53411;SDS011;39307;52.870;13.660;2022-12-29T10:54:39;3.15;;;1.02;;
53411;SDS011;39307;52.870;13.660;2022-12-29T10:57:13;3.55;;;1.15;;
53411;SDS011;39307;52.870;13.660;2022-12-29T10:59:43;3.00;;;1.00;;
53411;SDS011;39307;52.870;13.660;2022-12-29T11:07:24;3.60;;;1.27;;
53411;SDS011;39307;52.870;13.660;2022-12-29T11:09:51;4.00;;;1.20;;
53411;SDS011;39307;52.870;13.660;2022-12-29T11:12:30;3.65;;;1.10;;
53411;SDS011;39307;52.870;13.660;2022-12-29T11:15:30;2.13;;;1.00;;
53411;SDS011;39307;52.870;13.660;2022-12-29T11:17:50;4.13;;;1.10;;
53411;SDS011;39307;52.870;13.660;2022-12-29T11:22:56;2.47;;;0.80;;
53411;SDS011;39307;52.870;13.660;2022-12-29T11:25:23;3.70;;;1.00;;
53411;SDS011;39307;52.870;13.660;2022-12-29T11:27:55;3.15;;;1.08;;
53411;SDS011;39307;52.870;13.660;2022-12-29T11:30:25;3.50;;;1.30;;
53411;SDS011;39307;52.870;13.660;2022-12-29T11:32:56;3.13;;;1.00;;
53411;SDS011;39307;52.870;13.660;2022-12-29T11:35:34;3.78;;;1.20;;
53411;SDS011;39307;52.870;13.660;2022-12-29T11:38:04;2.60;;;0.90;;
53411;SDS011;39307;52.870;13.660;2022-12-29T11:40:31;4.72;;;1.02;;
53411;SDS011;39307;52.870;13.660;2022-12-29T11:43:04;3.28;;;1.00;;
53411;SDS011;39307;52.870;13.660;2022-12-29T11:45:32;2.42;;;0.90;;
53411;SDS011;39307;52.870;13.660;2022-12-29T11:48:05;3.38;;;1.00;;
53411;SDS011;39307;52.870;13.660;2022-12-29T11:50:37;2.40;;;0.90;;
53411;SDS011;39307;52.870;13.660;2022-12-29T11:53:08;2.72;;;0.90;;
53411;SDS011;39307;52.870;13.660;2022-12-29T11:55:51;4.55;;;1.17;;
53411;SDS011;39307;52.870;13.660;2022-12-29T11:58:32;4.00;;;1.10;;
53411;SDS011;39307;52.870;13.660;2022-12-29T12:01:45;3.58;;;1.10;;
53411;SDS011;39307;52.870;13.660;2022-12-29T12:06:30;2.67;;;0.80;;
53411;SDS011;39307;52.870;13.660;2022-12-29T12:09:05;3.28;;;1.10;;
53411;SDS011;39307;52.870;13.660;2022-12-29T12:11:43;2.60;;;0.80;;
53411;SDS011;39307;52.870;13.660;2022-12-29T12:17:18;1.63;;;0.70;;
53411;SDS011;39307;52.870;13.660;2022-12-29T12:20:02;3.67;;;0.95;;
53411;SDS011;39307;52.870;13.660;2022-12-29T12:22:41;2.33;;;0.82;;
53411;SDS011;39307;52.870;13.660;2022-12-29T12:25:25;3.65;;;0.90;;
53411;SDS011;39307;52.870;13.660;2022-12-29T12:28:05;2.67;;;0.80;;
53411;SDS011;39307;52.870;13.660;2022-12-29T12:30:36;2.80;;;0.90;;
53411;SDS011;39307;52.870;13.660;2022-12-29T12:33:30;3.45;;;0.70;;
53411;SDS011;39307;52.870;13.660;2022-12-29T12:36:14;2.40;;;0.83;;
53411;SDS011;39307;52.870;13.660;2022-12-29T12:41:39;1.98;;;0.75;;
53411;SDS011;39307;52.870;13.660;2022-12-29T12:50:52;2.80;;;0.60;;
53411;SDS011;39307;52.870;13.660;2022-12-29T12:53:53;1.25;;;0.70;;
53411;SDS011;39307;52.870;13.660;2022-12-29T12:57:00;2.20;;;0.60;;
53411;SDS011;39307;52.870;13.660;2022-12-29T13:00:05;2.90;;;0.80;;
53411;SDS011;39307;52.870;13.660;2022-12-29T13:08:43;2.40;;;0.57;;
53411;SDS011;39307;52.870;13.660;2022-12-29T13:11:23;1.40;;;0.50;;
53411;SDS011;39307;52.870;13.660;2022-12-29T13:14:22;1.42;;;0.40;;
53411;SDS011;39307;52.870;13.660;2022-12-29T13:17:06;2.20;;;0.73;;
53411;SDS011;39307;52.870;13.660;2022-12-29T13:19:57;1.93;;;0.50;;
53411;SDS011;39307;52.870;13.660;2022-12-29T13:22:32;2.08;;;0.60;;
53411;SDS011;39307;52.870;13.660;2022-12-29T13:25:21;1.80;;;0.60;;
53411;SDS011;39307;52.870;13.660;2022-12-29T13:28:00;1.10;;;0.50;;
53411;SDS011;39307;52.870;13.660;2022-12-29T13:30:52;1.92;;;0.50;;
53411;SDS011;39307;52.870;13.660;2022-12-29T13:36:28;1.40;;;0.50;;
53411;SDS011;39307;52.870;13.660;2022-12-29T13:39:12;2.33;;;0.40;;
53411;SDS011;39307;52.870;13.660;2022-12-29T13:41:47;1.95;;;0.45;;
53411;SDS011;39307;52.870;13.660;2022-12-29T13:47:33;3.22;;;0.50;;
53411;SDS011;39307;52.870;13.660;2022-12-29T13:50:28;2.05;;;0.63;;
53411;SDS011;39307;52.870;13.660;2022-12-29T13:53:05;1.77;;;0.50;;
53411;SDS011;39307;52.870;13.660;2022-12-29T14:01:22;1.90;;;0.50;;
53411;SDS011;39307;52.870;13.660;2022-12-29T14:03:56;1.30;;;0.60;;
53411;SDS011;39307;52.870;13.660;2022-12-29T14:06:24;1.65;;;0.60;;
53411;SDS011;39307;52.870;13.660;2022-12-29T14:08:59;2.55;;;0.60;;
53411;SDS011;39307;52.870;13.660;2022-12-29T14:11:34;2.88;;;0.70;;
53411;SDS011;39307;52.870;13.660;2022-12-29T14:14:18;3.95;;;0.80;;
53411;SDS011;39307;52.870;13.660;2022-12-29T14:16:49;3.92;;;0.65;;
53411;SDS011;39307;52.870;13.660;2022-12-29T14:19:18;3.00;;;0.73;;
53411;SDS011;39307;52.870;13.660;2022-12-29T14:21:54;1.73;;;0.63;;
53411;SDS011;39307;52.870;13.660;2022-12-29T14:27:00;2.22;;;0.70;;
53411;SDS011;39307;52.870;13.660;2022-12-29T14:37:26;3.05;;;0.77;;
53411;SDS011;39307;52.870;13.660;2022-12-29T14:40:04;2.00;;;0.63;;
53411;SDS011;39307;52.870;13.660;2022-12-29T14:42:42;2.33;;;0.80;;
53411;SDS011;39307;52.870;13.660;2022-12-29T14:47:45;2.40;;;0.70;;
53411;SDS011;39307;52.870;13.660;2022-12-29T14:50:22;2.45;;;0.90;;
53411;SDS011;39307;52.870;13.660;2022-12-29T14:58:17;2.53;;;0.80;;
53411;SDS011;39307;52.870;13.660;2022-12-29T15:00:51;1.92;;;0.70;;
53411;SDS011;39307;52.870;13.660;2022-12-29T15:03:23;2.57;;;0.60;;
53411;SDS011;39307;52.870;13.660;2022-12-29T15:06:03;3.20;;;0.80;;
53411;SDS011;39307;52.870;13.660;2022-12-29T15:08:35;3.38;;;1.00;;
53411;SDS011;39307;52.870;13.660;2022-12-29T15:11:22;2.53;;;0.80;;
53411;SDS011;39307;52.870;13.660;2022-12-29T15:13:52;1.95;;;0.63;;
53411;SDS011;39307;52.870;13.660;2022-12-29T15:16:22;3.05;;;0.75;;
53411;SDS011;39307;52.870;13.660;2022-12-29T15:18:48;2.77;;;0.63;;
53411;SDS011;39307;52.870;13.660;2022-12-29T15:21:14;1.60;;;0.60;;
53411;SDS011;39307;52.870;13.660;2022-12-29T15:23:44;2.45;;;0.80;;
53411;SDS011;39307;52.870;13.660;2022-12-29T15:26:10;2.17;;;0.68;;
53411;SDS011;39307;52.870;13.660;2022-12-29T15:28:38;4.07;;;0.77;;
53411;SDS011;39307;52.870;13.660;2022-12-29T15:33:42;1.70;;;0.70;;
53411;SDS011;39307;52.870;13.660;2022-12-29T15:36:21;2.05;;;0.80;;
53411;SDS011;39307;52.870;13.660;2022-12-29T15:38:52;3.88;;;0.88;;
53411;SDS011;39307;52.870;13.660;2022-12-29T15:41:36;3.28;;;0.93;;
53411;SDS011;39307;52.870;13.660;2022-12-29T15:44:14;3.20;;;0.93;;
53411;SDS011;39307;52.870;13.660;2022-12-29T15:46:46;3.75;;;0.90;;
53411;SDS011;39307;52.870;13.660;2022-12-29T15:49:13;4.90;;;1.00;;
53411;SDS011;39307;52.870;13.660;2022-12-29T15:51:40;3.35;;;1.00;;
53411;SDS011;39307;52.870;13.660;2022-12-29T15:54:17;1.98;;;0.80;;
53411;SDS011;39307;52.870;13.660;2022-12-29T15:56:46;2.63;;;0.90;;
53411;SDS011;39307;52.870;13.660;2022-12-29T16:02:11;2.15;;;0.90;;
53411;SDS011;39307;52.870;13.660;2022-12-29T16:04:38;4.13;;;1.20;;
53411;SDS011;39307;52.870;13.660;2022-12-29T16:07:05;5.68;;;1.50;;
53411;SDS011;39307;52.870;13.660;2022-12-29T16:09:53;3.95;;;1.40;;
53411;SDS011;39307;52.870;13.660;2022-12-29T16:12:22;3.55;;;0.93;;
53411;SDS011;39307;52.870;13.660;2022-12-29T16:14:56;3.83;;;1.00;;
53411;SDS011;39307;52.870;13.660;2022-12-29T16:17:31;6.03;;;1.60;;
53411;SDS011;39307;52.870;13.660;2022-12-29T16:20:00;3.07;;;1.00;;
53411;SDS011;39307;52.870;13.660;2022-12-29T16:22:32;4.28;;;1.08;;
53411;SDS011;39307;52.870;13.660;2022-12-29T16:25:11;3.45;;;1.25;;
53411;SDS011;39307;52.870;13.660;2022-12-29T16:27:48;3.03;;;1.10;;
53411;SDS011;39307;52.870;13.660;2022-12-29T16:30:20;2.55;;;1.00;;
53411;SDS011;39307;52.870;13.660;2022-12-29T16:32:49;2.40;;;1.10;;
53411;SDS011;39307;52.870;13.660;2022-12-29T16:35:21;3.92;;;1.25;;
53411;SDS011;39307;52.870;13.660;2022-12-29T16:38:10;3.40;;;1.10;;
53411;SDS011;39307;52.870;13.660;2022-12-29T16:40:49;4.35;;;1.50;;